Time;durP1;ratioP1;P1;durP2;ratioP2;P2;SDS_P1;SDS_P2;PMS_P1;PMS_P2;Temp;Humidity;BMP_temperature;BMP_pressure;BME280_temperature;BME280_humidity;BME280_pressure;Samples;Min_cycle;Max_cycle;Signal;HPM_P1;HPM_P2
2022/05/14 00:00:19;;;;;;;12.75;3.15;;;12.30;71.10;;;;;;5015399;28;20337;-86
2022/05/14 00:02:45;;;;;;;11.18;3.58;;;12.30;71.30;;;;;;5017771;28;20045;-87
2022/05/14 00:05:11;;;;;;;12.68;3.72;;;12.30;71.40;;;;;;5013381;28;20406;-86
2022/05/14 00:07:38;;;;;;;13.25;3.60;;;12.20;71.70;;;;;;5020725;28;20661;-86
2022/05/14 00:10:05;;;;;;;11.57;3.33;;;12.20;71.80;;;;;;5023994;28;20038;-86
2022/05/14 00:15:16;;;;;;;14.52;3.92;;;12.10;72.10;;;;;;5011794;28;20831;-87
2022/05/14 00:17:41;;;;;;;12.98;3.88;;;12.10;72.40;;;;;;5020557;28;20613;-87
2022/05/14 00:20:08;;;;;;;10.63;3.30;;;12.10;72.50;;;;;;5022874;28;20048;-86
2022/05/14 00:22:33;;;;;;;11.82;3.58;;;12.10;72.50;;;;;;5019635;28;20045;-87
2022/05/14 00:24:59;;;;;;;14.77;4.00;;;12.10;72.60;;;;;;5020075;28;20045;-87
2022/05/14 00:27:25;;;;;;;11.65;4.15;;;12.10;72.60;;;;;;5017982;28;20042;-87
2022/05/14 00:29:51;;;;;;;11.77;3.83;;;12.00;72.80;;;;;;5038285;28;20037;-88
2022/05/14 00:32:16;;;;;;;11.13;3.67;;;12.00;73.20;;;;;;5032641;28;20045;-88
2022/05/14 00:34:42;;;;;;;12.15;3.78;;;12.00;73.30;;;;;;5021547;28;20030;-87
2022/05/14 00:37:07;;;;;;;11.88;3.60;;;12.00;73.40;;;;;;5023049;28;20041;-87
2022/05/14 00:39:33;;;;;;;10.07;3.22;;;12.00;73.60;;;;;;5030998;28;20381;-87
2022/05/14 00:41:59;;;;;;;13.68;4.03;;;11.90;73.70;;;;;;5024510;28;20034;-87
2022/05/14 00:44:24;;;;;;;10.93;3.45;;;11.90;73.80;;;;;;5025357;28;20053;-87
2022/05/14 00:47:00;;;;;;;12.93;3.90;;;11.80;74.00;;;;;;5022403;28;20048;-85
2022/05/14 00:49:29;;;;;;;12.82;3.78;;;11.80;74.50;;;;;;5027509;28;20038;-87
2022/05/14 00:51:55;;;;;;;10.43;3.38;;;11.80;74.60;;;;;;5027721;28;20170;-87
2022/05/14 00:54:27;;;;;;;12.90;4.10;;;11.80;74.80;;;;;;5030194;28;21977;-88
2022/05/14 00:56:56;;;;;;;13.20;3.80;;;11.80;74.70;;;;;;5020435;28;20052;-88
2022/05/14 00:59:24;;;;;;;11.32;3.88;;;11.80;74.80;;;;;;5015855;28;20060;-88
2022/05/14 01:01:50;;;;;;;11.20;3.55;;;11.70;74.90;;;;;;5021927;28;20034;-86
2022/05/14 01:04:18;;;;;;;16.02;4.13;;;11.70;75.10;;;;;;5032547;28;20485;-86
2022/05/14 01:07:11;;;;;;;11.93;3.65;;;11.60;75.40;;;;;;5019789;28;20045;-87
2022/05/14 01:09:43;;;;;;;12.38;4.13;;;11.60;75.60;;;;;;5021880;28;20703;-87
2022/05/14 01:12:11;;;;;;;11.18;4.20;;;11.60;75.50;;;;;;5019309;28;20041;-87
2022/05/14 01:14:36;;;;;;;11.02;4.13;;;11.60;75.90;;;;;;5017705;28;20100;-88
2022/05/14 01:17:02;;;;;;;15.40;4.60;;;11.60;75.90;;;;;;5018706;28;20029;-86
2022/05/14 01:19:28;;;;;;;12.07;4.03;;;11.60;76.00;;;;;;5024734;28;20033;-86
2022/05/14 01:22:21;;;;;;;10.13;4.15;;;11.60;76.10;;;;;;5017982;28;20124;-88
2022/05/14 01:27:52;;;;;;;12.55;4.10;;;11.50;76.20;;;;;;5021336;28;20098;-87
2022/05/14 01:30:19;;;;;;;14.48;4.32;;;11.50;76.40;;;;;;5017606;28;20087;-87
2022/05/14 01:33:04;;;;;;;13.95;4.53;;;11.50;76.50;;;;;;5015758;28;20566;-87
2022/05/14 01:35:35;;;;;;;11.18;4.00;;;11.50;76.60;;;;;;5010546;28;20167;-87
2022/05/14 01:38:01;;;;;;;12.80;4.00;;;11.50;76.50;;;;;;5023879;28;20033;-87
2022/05/14 01:40:28;;;;;;;16.00;4.63;;;11.50;76.70;;;;;;5017885;28;20070;-87
2022/05/14 01:42:54;;;;;;;13.65;4.53;;;11.50;76.80;;;;;;5019736;28;20025;-87
2022/05/14 01:45:20;;;;;;;13.15;4.60;;;11.40;77.00;;;;;;5018036;28;20049;-86
2022/05/14 01:47:46;;;;;;;14.35;4.43;;;11.40;77.00;;;;;;5029646;28;20044;-87
2022/05/14 01:50:13;;;;;;;13.77;4.20;;;11.40;77.20;;;;;;5031643;28;20044;-87
2022/05/14 01:52:38;;;;;;;13.80;4.43;;;11.30;77.20;;;;;;5024550;28;20034;-87
2022/05/14 01:55:05;;;;;;;11.68;3.97;;;11.30;77.30;;;;;;5023053;28;20170;-88
2022/05/14 01:57:31;;;;;;;10.07;4.45;;;11.30;77.30;;;;;;5036121;28;20049;-86
2022/05/14 01:59:56;;;;;;;13.82;4.68;;;11.30;77.30;;;;;;5023011;28;20117;-86
2022/05/14 02:02:22;;;;;;;14.18;4.50;;;11.30;77.20;;;;;;5016055;28;20043;-87
2022/05/14 02:04:47;;;;;;;10.88;4.15;;;11.20;77.20;;;;;;5023684;28;20128;-86
2022/05/14 02:07:13;;;;;;;13.10;4.72;;;11.20;77.20;;;;;;5032028;28;20037;-86
2022/05/14 02:09:39;;;;;;;13.05;4.50;;;11.20;77.40;;;;;;5031989;28;20045;-85
2022/05/14 02:12:05;;;;;;;9.68;3.88;;;11.10;77.20;;;;;;5027486;28;20033;-88
2022/05/14 02:14:32;;;;;;;13.68;4.88;;;11.10;77.40;;;;;;5022459;28;20042;-87
2022/05/14 02:16:57;;;;;;;11.10;4.63;;;11.10;77.40;;;;;;5035703;28;20115;-87
2022/05/14 02:19:24;;;;;;;11.45;4.38;;;11.00;77.70;;;;;;5023347;28;20587;-87
2022/05/14 02:21:49;;;;;;;11.68;4.32;;;10.90;77.80;;;;;;5016673;28;20046;-87
2022/05/14 02:24:16;;;;;;;14.75;4.75;;;10.90;77.70;;;;;;5023236;28;20289;-86
2022/05/14 02:26:41;;;;;;;12.27;4.50;;;10.80;77.80;;;;;;5031849;28;20044;-87
2022/05/14 02:29:07;;;;;;;10.57;4.00;;;10.80;77.70;;;;;;5042165;28;20037;-86
2022/05/14 02:31:33;;;;;;;15.77;4.38;;;10.80;77.80;;;;;;5031717;28;20037;-86
2022/05/14 02:34:00;;;;;;;15.40;5.10;;;10.70;78.00;;;;;;5001476;28;20731;-87
2022/05/14 02:36:25;;;;;;;10.73;4.55;;;10.70;78.20;;;;;;5013477;28;20029;-86
2022/05/14 02:38:51;;;;;;;10.70;5.38;;;10.60;78.00;;;;;;5039657;28;20327;-87
2022/05/14 02:41:17;;;;;;;15.60;5.20;;;10.60;78.20;;;;;;5034920;28;20061;-87
2022/05/14 02:43:43;;;;;;;17.25;4.70;;;10.60;78.40;;;;;;5030028;28;20099;-88
2022/05/14 02:46:09;;;;;;;14.13;5.28;;;10.60;78.40;;;;;;5023623;28;20114;-87
2022/05/14 02:48:35;;;;;;;13.15;4.72;;;10.60;78.50;;;;;;5020677;28;20457;-85
2022/05/14 02:51:02;;;;;;;12.57;4.88;;;10.60;78.50;;;;;;5018183;28;20050;-84
2022/05/14 02:53:27;;;;;;;12.15;4.45;;;10.50;78.40;;;;;;5021698;28;20045;-87
2022/05/14 02:55:53;;;;;;;13.30;5.10;;;10.50;78.60;;;;;;5026460;28;20055;-86
2022/05/14 03:01:04;;;;;;;10.25;4.47;;;10.40;78.80;;;;;;5034495;28;20071;-87
2022/05/14 03:03:31;;;;;;;13.07;4.72;;;10.40;78.80;;;;;;5028261;28;20392;-86
2022/05/14 03:05:56;;;;;;;11.00;5.05;;;10.40;78.80;;;;;;5021529;28;20056;-86
2022/05/14 03:08:22;;;;;;;13.85;5.22;;;10.40;78.80;;;;;;5025555;28;20057;-86
2022/05/14 03:10:48;;;;;;;12.35;4.90;;;10.40;78.90;;;;;;5029646;28;20037;-87
2022/05/14 03:13:13;;;;;;;12.80;4.93;;;10.40;78.80;;;;;;5027923;28;20045;-86
2022/05/14 03:15:39;;;;;;;16.05;6.15;;;10.40;78.90;;;;;;5030262;28;20121;-86
2022/05/14 03:18:05;;;;;;;16.40;5.35;;;10.30;78.90;;;;;;5043030;28;20372;-87
2022/05/14 03:20:30;;;;;;;16.55;5.55;;;10.30;79.20;;;;;;5048622;28;20036;-85
2022/05/14 03:22:56;;;;;;;13.35;5.28;;;10.30;79.10;;;;;;5031500;28;20048;-87
2022/05/14 03:25:22;;;;;;;11.73;4.78;;;10.30;79.10;;;;;;5024377;28;20128;-85
2022/05/14 03:27:47;;;;;;;16.33;5.97;;;10.30;79.20;;;;;;5034683;28;20041;-86
2022/05/14 03:30:13;;;;;;;16.00;6.20;;;10.30;79.30;;;;;;5031471;28;20033;-86
2022/05/14 03:32:40;;;;;;;14.35;5.28;;;10.20;79.30;;;;;;5032724;28;20033;-86
2022/05/14 03:35:08;;;;;;;17.45;6.10;;;10.20;79.30;;;;;;5014467;28;20054;-85
2022/05/14 03:37:35;;;;;;;10.85;5.15;;;10.20;79.40;;;;;;5027352;28;20680;-86
2022/05/14 03:40:00;;;;;;;11.02;5.28;;;10.10;79.40;;;;;;5012181;28;20046;-87
2022/05/14 03:42:26;;;;;;;10.13;5.25;;;10.10;79.40;;;;;;5021880;28;20048;-87
2022/05/14 03:44:52;;;;;;;12.90;5.57;;;10.10;79.50;;;;;;5030154;28;20061;-88
2022/05/14 03:47:18;;;;;;;14.25;5.43;;;10.20;79.60;;;;;;5015478;28;20029;-87
2022/05/14 03:49:45;;;;;;;14.45;4.80;;;10.10;79.60;;;;;;5025761;28;20044;-86
2022/05/14 03:52:12;;;;;;;16.65;5.43;;;10.20;79.40;;;;;;5030816;28;20037;-87
2022/05/14 03:54:43;;;;;;;11.90;5.50;;;10.10;79.60;;;;;;5030750;28;20124;-87
2022/05/14 03:57:09;;;;;;;13.52;5.90;;;10.10;79.80;;;;;;5029997;28;20033;-86
2022/05/14 03:59:35;;;;;;;14.80;5.55;;;10.10;80.00;;;;;;5011649;28;20136;-86
2022/05/14 04:02:03;;;;;;;14.48;5.60;;;10.10;80.00;;;;;;5028365;28;20085;-85
2022/05/14 04:04:29;;;;;;;11.60;5.38;;;10.00;79.80;;;;;;5024226;28;20038;-87
2022/05/14 04:06:54;;;;;;;13.55;5.65;;;10.00;79.90;;;;;;5032041;28;20107;-87
2022/05/14 04:09:20;;;;;;;14.32;5.57;;;10.00;80.00;;;;;;5025352;28;20163;-87
2022/05/14 04:11:46;;;;;;;13.40;5.40;;;10.00;80.10;;;;;;5030797;28;20132;-87
2022/05/14 04:14:12;;;;;;;13.32;6.15;;;10.00;80.10;;;;;;5028337;28;20056;-88
2022/05/14 04:16:38;;;;;;;12.80;5.53;;;10.10;79.80;;;;;;5029659;28;20041;-87
2022/05/14 04:19:03;;;;;;;13.00;6.63;;;10.10;79.80;;;;;;5029483;28;20038;-85
2022/05/14 04:21:30;;;;;;;14.50;5.80;;;10.00;79.90;;;;;;5027474;28;20041;-88
2022/05/14 04:23:55;;;;;;;11.95;5.40;;;10.10;79.90;;;;;;5026106;28;20034;-87
2022/05/14 04:26:23;;;;;;;16.33;6.13;;;10.10;80.00;;;;;;5036175;28;20029;-89
2022/05/14 04:28:49;;;;;;;15.63;5.43;;;10.10;79.80;;;;;;5018459;28;20116;-87
2022/05/14 04:31:15;;;;;;;10.57;5.07;;;10.20;79.70;;;;;;5025258;28;20128;-88
2022/05/14 04:33:41;;;;;;;10.48;5.30;;;10.30;79.60;;;;;;5039121;28;20032;-86
2022/05/14 04:36:07;;;;;;;12.60;6.10;;;10.30;79.50;;;;;;5027657;28;20041;-88
2022/05/14 04:38:33;;;;;;;12.70;5.70;;;10.30;79.30;;;;;;5018583;28;20042;-87
2022/05/14 04:40:58;;;;;;;14.30;6.00;;;10.40;79.30;;;;;;5034101;28;20042;-86
2022/05/14 04:43:24;;;;;;;12.48;6.20;;;10.50;79.10;;;;;;5036213;28;20017;-89
2022/05/14 04:45:50;;;;;;;12.43;5.30;;;10.50;79.20;;;;;;5047720;28;20112;-86
2022/05/14 04:48:15;;;;;;;12.43;5.95;;;10.60;79.00;;;;;;5038229;28;20044;-87
2022/05/14 04:50:41;;;;;;;15.30;6.25;;;10.60;78.40;;;;;;5030364;28;20199;-87
2022/05/14 04:53:07;;;;;;;13.02;5.97;;;10.70;78.60;;;;;;5025669;28;20469;-86
2022/05/14 04:55:33;;;;;;;13.05;6.13;;;10.80;78.60;;;;;;5035042;28;20045;-89
2022/05/14 04:57:59;;;;;;;12.98;5.90;;;10.90;78.30;;;;;;5036698;28;20388;-89
2022/05/14 05:00:25;;;;;;;13.57;6.35;;;10.90;78.10;;;;;;5019679;28;20599;-88
2022/05/14 05:05:35;;;;;;;11.50;6.55;;;11.00;78.00;;;;;;5015961;28;20178;-86
2022/05/14 05:08:01;;;;;;;16.30;6.18;;;11.10;77.70;;;;;;5020878;28;20732;-87
2022/05/14 05:10:27;;;;;;;15.68;6.88;;;11.10;77.60;;;;;;5033930;28;20030;-88
2022/05/14 05:12:53;;;;;;;12.45;6.68;;;11.20;77.80;;;;;;5037426;28;20028;-88
2022/05/14 05:15:20;;;;;;;16.10;6.63;;;11.30;77.80;;;;;;5030366;28;20094;-87
2022/05/14 05:17:46;;;;;;;17.40;7.10;;;12.10;77.60;;;;;;5030135;28;20037;-85
2022/05/14 05:20:13;;;;;;;14.32;6.07;;;13.20;74.20;;;;;;5022986;28;20037;-87
2022/05/14 05:22:39;;;;;;;15.00;6.63;;;14.40;68.90;;;;;;5035836;28;20044;-86
2022/05/14 05:25:07;;;;;;;12.10;5.00;;;15.30;65.60;;;;;;5026534;28;20341;-87
2022/05/14 05:27:33;;;;;;;13.05;5.28;;;16.20;62.80;;;;;;5025970;28;20068;-88
2022/05/14 05:29:59;;;;;;;13.52;5.53;;;16.80;60.50;;;;;;5029148;28;20050;-87
2022/05/14 05:32:24;;;;;;;13.48;5.57;;;17.10;58.80;;;;;;5025882;28;20069;-87
2022/05/14 05:34:51;;;;;;;13.23;5.97;;;17.40;57.10;;;;;;5024009;28;20556;-86
2022/05/14 05:37:17;;;;;;;15.93;6.45;;;17.00;57.40;;;;;;5019737;28;20030;-87
2022/05/14 05:39:42;;;;;;;17.38;6.05;;;16.40;58.80;;;;;;5021498;28;20436;-87
2022/05/14 05:42:08;;;;;;;15.75;6.57;;;15.40;62.40;;;;;;5018994;28;20045;-87
2022/05/14 05:44:34;;;;;;;14.38;6.00;;;15.20;64.80;;;;;;5032747;28;20757;-90
2022/05/14 05:47:06;;;;;;;13.18;6.53;;;15.60;63.90;;;;;;5025330;28;20060;-87
2022/05/14 05:49:37;;;;;;;12.35;6.72;;;16.30;61.40;;;;;;5021448;28;20485;-87
2022/05/14 05:52:03;;;;;;;18.92;7.30;;;16.60;60.70;;;;;;5018758;28;20038;-87
2022/05/14 05:57:13;;;;;;;15.17;7.03;;;16.50;60.70;;;;;;5017015;28;20053;-85
2022/05/14 05:59:38;;;;;;;16.98;7.75;;;15.80;62.80;;;;;;5030863;28;20037;-87
2022/05/14 06:02:04;;;;;;;16.35;7.25;;;15.10;64.30;;;;;;5013304;28;20046;-85
2022/05/14 06:04:30;;;;;;;19.77;8.45;;;14.70;66.70;;;;;;5021950;28;20417;-86
2022/05/14 06:06:55;;;;;;;21.80;8.73;;;14.40;67.90;;;;;;5032100;28;20020;-87
2022/05/14 06:09:25;;;;;;;23.13;8.57;;;14.30;68.90;;;;;;5036399;28;20042;-86
2022/05/14 06:11:51;;;;;;;18.83;8.82;;;14.20;69.40;;;;;;5022554;28;20034;-86
2022/05/14 06:14:17;;;;;;;18.95;9.30;;;14.10;70.00;;;;;;5017991;28;20048;-88
2022/05/14 06:16:44;;;;;;;16.88;9.50;;;14.10;70.60;;;;;;5019661;28;20091;-85
2022/05/14 06:19:10;;;;;;;20.60;10.02;;;14.10;70.80;;;;;;4993344;28;20041;-87
2022/05/14 06:21:37;;;;;;;16.33;8.48;;;14.20;71.30;;;;;;5016036;28;20053;-87
2022/05/14 06:24:04;;;;;;;22.50;9.90;;;14.30;71.10;;;;;;5017911;28;20103;-87
2022/05/14 06:26:30;;;;;;;19.95;9.35;;;14.30;70.60;;;;;;5013126;28;20107;-85
2022/05/14 06:28:56;;;;;;;22.77;10.32;;;14.40;71.50;;;;;;5011760;28;20116;-87
2022/05/14 06:31:22;;;;;;;19.67;9.80;;;14.60;70.80;;;;;;5016258;28;20124;-89
2022/05/14 06:33:48;;;;;;;19.63;9.30;;;14.70;70.20;;;;;;5012499;28;20037;-85
2022/05/14 06:36:15;;;;;;;18.35;10.55;;;14.80;70.20;;;;;;5013084;28;20037;-84
2022/05/14 06:38:41;;;;;;;22.05;11.13;;;15.00;70.10;;;;;;5024408;28;20032;-82
2022/05/14 06:41:09;;;;;;;18.17;9.30;;;15.00;69.50;;;;;;5019489;28;20041;-85
2022/05/14 06:43:36;;;;;;;19.98;9.60;;;15.00;70.60;;;;;;5009769;28;20056;-84
2022/05/14 06:46:01;;;;;;;21.92;9.25;;;15.10;70.20;;;;;;5018952;28;20791;-83
2022/05/14 06:48:27;;;;;;;21.30;10.50;;;15.40;69.70;;;;;;5015212;28;20048;-84
2022/05/14 06:50:55;;;;;;;23.15;10.25;;;15.50;68.30;;;;;;5029085;28;20657;-83
2022/05/14 06:53:22;;;;;;;19.98;10.07;;;15.70;68.40;;;;;;5013590;28;21013;-84
2022/05/14 06:55:52;;;;;;;23.45;9.82;;;15.70;69.30;;;;;;5017711;28;20033;-87
2022/05/14 06:58:23;;;;;;;21.08;10.40;;;15.70;69.30;;;;;;5012926;28;20042;-83
2022/05/14 07:00:50;;;;;;;20.77;10.32;;;15.90;68.40;;;;;;5012679;28;20033;-85
2022/05/14 07:08:45;;;;;;;20.45;9.27;;;16.40;68.20;;;;;;5007912;28;19928;-85
2022/05/14 07:11:11;;;;;;;25.85;9.73;;;16.40;67.50;;;;;;5009159;28;20030;-84
2022/05/14 07:13:38;;;;;;;21.23;11.02;;;16.60;68.30;;;;;;5017950;28;20052;-86
2022/05/14 07:16:04;;;;;;;20.65;9.55;;;16.60;67.70;;;;;;5026692;28;20046;-86
2022/05/14 07:18:29;;;;;;;20.25;10.25;;;16.60;68.70;;;;;;5028817;28;20108;-87
2022/05/14 07:20:56;;;;;;;21.63;10.73;;;16.60;68.80;;;;;;5024403;28;20050;-84
2022/05/14 07:23:21;;;;;;;25.00;11.57;;;16.50;68.80;;;;;;5004096;28;20064;-84
2022/05/14 07:25:47;;;;;;;23.48;11.02;;;16.60;69.10;;;;;;5007452;28;20157;-85
2022/05/14 07:28:13;;;;;;;21.52;10.70;;;16.80;68.00;;;;;;5010105;28;20572;-85
2022/05/14 07:30:38;;;;;;;23.35;10.35;;;16.90;67.90;;;;;;5025010;28;20253;-87
2022/05/14 07:33:04;;;;;;;22.13;10.40;;;17.00;67.90;;;;;;5036208;28;20144;-85
2022/05/14 07:35:30;;;;;;;23.42;10.63;;;17.20;67.40;;;;;;5011299;28;20041;-83
2022/05/14 07:38:01;;;;;;;22.92;11.07;;;17.30;66.60;;;;;;5012047;28;20220;-85
2022/05/14 07:40:29;;;;;;;24.20;10.57;;;17.30;67.50;;;;;;5006485;28;20106;-86
2022/05/14 07:43:00;;;;;;;22.13;9.40;;;17.50;67.30;;;;;;5012997;28;20037;-83
2022/05/14 07:45:41;;;;;;;26.33;10.38;;;17.60;65.30;;;;;;5008065;28;20049;-83
2022/05/14 07:48:11;;;;;;;25.60;10.82;;;17.60;66.30;;;;;;5012438;28;20068;-86
2022/05/14 07:50:37;;;;;;;24.33;9.45;;;17.60;66.30;;;;;;5010649;28;20052;-83
2022/05/14 07:53:03;;;;;;;23.77;8.88;;;17.80;65.60;;;;;;5012113;28;20042;-84
2022/05/14 07:55:28;;;;;;;24.15;9.13;;;18.00;64.40;;;;;;5009775;28;20092;-84
2022/05/14 07:57:54;;;;;;;23.85;9.75;;;18.00;64.30;;;;;;5011024;28;20041;-84
2022/05/14 08:00:20;;;;;;;24.08;9.43;;;17.90;65.20;;;;;;5008721;28;20029;-84
2022/05/14 08:02:46;;;;;;;23.00;9.55;;;18.10;65.40;;;;;;5018350;28;20040;-85
2022/05/14 08:05:14;;;;;;;18.92;8.90;;;18.10;63.40;;;;;;5011733;28;20042;-83
2022/05/14 08:07:39;;;;;;;19.80;8.95;;;18.30;63.80;;;;;;5010170;28;20033;-81
2022/05/14 08:10:07;;;;;;;21.65;9.35;;;18.70;63.30;;;;;;5011240;28;20060;-81
2022/05/14 08:12:39;;;;;;;25.40;9.95;;;18.80;62.20;;;;;;5014017;28;20049;-82
2022/05/14 08:15:05;;;;;;;18.20;8.13;;;19.00;61.10;;;;;;5010422;28;20041;-85
2022/05/14 08:17:31;;;;;;;24.10;8.77;;;19.20;59.50;;;;;;5018478;28;20029;-83
2022/05/14 08:19:57;;;;;;;21.65;9.50;;;19.30;60.20;;;;;;5007478;28;20041;-80
2022/05/14 08:25:07;;;;;;;26.40;8.68;;;19.10;59.90;;;;;;5013131;28;20581;-81
2022/05/14 08:27:44;;;;;;;17.42;7.60;;;19.40;58.50;;;;;;5010431;28;20034;-83
2022/05/14 08:30:25;;;;;;;15.68;7.07;;;19.60;57.90;;;;;;5008632;28;20561;-81
2022/05/14 08:32:51;;;;;;;17.63;7.10;;;19.90;57.10;;;;;;5018518;28;20124;-81
2022/05/14 08:35:18;;;;;;;17.50;7.00;;;20.10;56.10;;;;;;5007769;28;20487;-82
2022/05/14 08:37:45;;;;;;;20.77;7.25;;;20.30;55.50;;;;;;5012997;28;20034;-81
2022/05/14 08:40:18;;;;;;;19.88;6.43;;;20.40;55.20;;;;;;5016933;28;20137;-82
2022/05/14 08:42:47;;;;;;;17.35;7.25;;;20.50;54.80;;;;;;5023024;28;20042;-82
2022/05/14 08:45:15;;;;;;;23.92;7.82;;;20.60;53.80;;;;;;5016935;28;20392;-85
2022/05/14 08:47:48;;;;;;;19.02;7.80;;;20.60;54.80;;;;;;5019988;28;20041;-81
2022/05/14 08:50:14;;;;;;;16.42;7.32;;;20.70;54.10;;;;;;5019137;28;20037;-81
2022/05/14 08:52:41;;;;;;;19.52;7.95;;;20.80;53.90;;;;;;5023085;28;20037;-81
2022/05/14 08:55:12;;;;;;;21.52;8.38;;;21.00;52.60;;;;;;5017801;28;20025;-81
2022/05/14 08:58:04;;;;;;;18.25;7.72;;;21.10;53.00;;;;;;5034312;28;20057;-81
2022/05/14 09:00:29;;;;;;;24.08;7.80;;;21.20;53.10;;;;;;5026754;28;20036;-82
2022/05/14 09:02:55;;;;;;;22.20;7.97;;;21.30;52.60;;;;;;5022186;28;20022;-82
2022/05/14 09:05:32;;;;;;;21.00;7.68;;;21.30;53.60;;;;;;5026343;28;20049;-84
2022/05/14 09:07:58;;;;;;;19.63;7.30;;;21.30;53.00;;;;;;5025507;28;20121;-82
2022/05/14 09:10:25;;;;;;;16.23;7.25;;;21.40;51.30;;;;;;5026346;28;20064;-81
2022/05/14 09:12:55;;;;;;;17.83;7.80;;;21.50;51.00;;;;;;5030405;28;20098;-82
2022/05/14 09:15:22;;;;;;;17.00;7.00;;;21.60;51.10;;;;;;5017173;28;20113;-80
2022/05/14 09:18:01;;;;;;;17.00;6.75;;;21.60;51.10;;;;;;5017679;28;20033;-81
2022/05/14 09:20:28;;;;;;;15.88;6.82;;;21.80;50.30;;;;;;5016913;28;20030;-83
2022/05/14 09:22:57;;;;;;;20.70;7.63;;;21.70;50.20;;;;;;5024259;28;20045;-80
2022/05/14 09:25:31;;;;;;;16.70;7.18;;;22.00;50.50;;;;;;5012023;28;20073;-81
2022/05/14 09:28:02;;;;;;;23.00;6.97;;;22.10;49.70;;;;;;5018123;28;20042;-79
2022/05/14 09:30:34;;;;;;;16.40;6.25;;;22.10;49.70;;;;;;5014343;28;20053;-82
2022/05/14 09:33:00;;;;;;;14.63;5.55;;;22.00;50.10;;;;;;5016099;28;20253;-80
2022/05/14 09:35:30;;;;;;;20.00;6.15;;;22.10;48.70;;;;;;5017229;28;20079;-79
2022/05/14 09:38:08;;;;;;;18.30;5.70;;;22.40;48.40;;;;;;5011103;28;20166;-81
2022/05/14 09:40:34;;;;;;;18.10;6.30;;;22.60;48.40;;;;;;5010277;28;20120;-82
2022/05/14 09:43:15;;;;;;;16.30;5.80;;;22.70;48.30;;;;;;5001668;28;20156;-80
2022/05/14 09:46:00;;;;;;;17.02;6.32;;;22.80;46.80;;;;;;5017474;28;20049;-79
2022/05/14 09:48:36;;;;;;;15.23;6.07;;;22.70;47.00;;;;;;5017042;28;20515;-83
2022/05/14 09:51:05;;;;;;;22.55;5.72;;;23.00;46.80;;;;;;5012996;28;20068;-80
2022/05/14 09:53:39;;;;;;;14.63;5.30;;;23.00;47.70;;;;;;5012686;28;20048;-80
2022/05/14 09:56:14;;;;;;;15.82;5.68;;;22.40;47.50;;;;;;5012525;28;20034;-80
2022/05/14 09:59:03;;;;;;;15.30;5.78;;;22.10;49.40;;;;;;5023089;28;20609;-81
2022/05/14 10:01:47;;;;;;;17.10;5.65;;;22.00;49.60;;;;;;5017560;28;20366;-80
2022/05/14 10:04:26;;;;;;;16.98;5.82;;;22.10;48.90;;;;;;5021202;28;20118;-79
2022/05/14 10:06:52;;;;;;;15.30;6.38;;;22.70;47.30;;;;;;5015964;28;20060;-83
2022/05/14 10:09:45;;;;;;;16.33;5.43;;;23.00;46.60;;;;;;5017330;28;20740;-82
2022/05/14 10:12:42;;;;;;;16.55;5.43;;;23.10;46.60;;;;;;5003871;28;20536;-84
2022/05/14 10:15:15;;;;;;;17.33;5.63;;;23.40;45.90;;;;;;5012633;28;20588;-81
2022/05/14 10:17:53;;;;;;;14.38;5.22;;;23.50;45.70;;;;;;5021495;28;20064;-80
2022/05/14 10:20:40;;;;;;;15.43;5.13;;;23.30;45.80;;;;;;5022248;28;20500;-79
2022/05/14 10:29:16;;;;;;;17.35;5.93;;;22.70;48.30;;;;;;5009908;28;20068;-78
2022/05/14 10:32:13;;;;;;;18.92;6.47;;;22.60;47.30;;;;;;5024421;28;20136;-80
2022/05/14 10:35:04;;;;;;;18.02;5.97;;;22.70;48.40;;;;;;5012067;28;20351;-82
2022/05/14 10:37:53;;;;;;;14.52;4.75;;;22.80;47.90;;;;;;5017275;28;20034;-82
2022/05/14 10:40:44;;;;;;;12.95;5.35;;;23.20;45.50;;;;;;5037508;28;20037;-85
2022/05/14 10:43:30;;;;;;;14.57;5.05;;;23.30;44.90;;;;;;5025162;28;20042;-81
2022/05/14 10:45:59;;;;;;;15.15;5.53;;;23.70;45.20;;;;;;5025014;28;20033;-82
2022/05/14 10:48:35;;;;;;;14.45;5.00;;;23.80;44.60;;;;;;5016307;28;20045;-81
2022/05/14 10:51:03;;;;;;;12.35;5.47;;;24.20;43.80;;;;;;5027827;28;20033;-82
2022/05/14 10:53:30;;;;;;;18.42;5.15;;;24.40;43.40;;;;;;5023165;28;20040;-81
2022/05/14 10:55:58;;;;;;;14.75;5.78;;;24.50;43.50;;;;;;5025782;28;20033;-82
2022/05/14 10:58:39;;;;;;;14.38;5.03;;;24.40;42.90;;;;;;5017905;28;20132;-82
2022/05/14 11:01:27;;;;;;;14.55;5.63;;;24.40;44.20;;;;;;5016822;28;20080;-83
2022/05/14 11:04:14;;;;;;;14.35;5.80;;;24.70;44.30;;;;;;5013513;28;20049;-82
2022/05/14 11:06:48;;;;;;;15.15;5.82;;;24.50;43.10;;;;;;5013084;28;20492;-81
2022/05/14 11:09:37;;;;;;;19.27;5.75;;;23.40;45.10;;;;;;5007659;28;20053;-80
2022/05/14 11:12:11;;;;;;;15.10;5.78;;;23.20;46.50;;;;;;5017155;28;20045;-84
2022/05/14 11:14:51;;;;;;;16.50;6.63;;;23.60;45.70;;;;;;5015683;28;20457;-84
2022/05/14 11:17:29;;;;;;;13.48;5.15;;;23.90;43.80;;;;;;5012707;28;20505;-83
2022/05/14 11:20:12;;;;;;;17.17;5.85;;;24.00;45.50;;;;;;5012644;28;20096;-82
2022/05/14 11:22:43;;;;;;;16.35;5.95;;;23.90;44.80;;;;;;5011265;28;20037;-82
2022/05/14 11:25:21;;;;;;;17.30;5.47;;;23.40;45.20;;;;;;5010115;28;20107;-82
2022/05/14 11:28:11;;;;;;;14.93;5.70;;;23.50;45.30;;;;;;5013114;28;20493;-83
2022/05/14 11:30:44;;;;;;;12.77;5.45;;;23.80;43.90;;;;;;5001364;28;20044;-83
2022/05/14 11:33:28;;;;;;;15.90;5.40;;;24.20;43.10;;;;;;5020580;28;20046;-83
2022/05/14 11:36:04;;;;;;;13.05;5.25;;;24.10;43.60;;;;;;5012793;28;20197;-83
2022/05/14 11:38:42;;;;;;;11.15;5.10;;;24.40;44.00;;;;;;4996840;28;20045;-81
2022/05/14 11:41:14;;;;;;;16.40;5.30;;;24.80;42.40;;;;;;5017508;28;20049;-82
2022/05/14 11:43:42;;;;;;;14.15;5.20;;;24.70;42.80;;;;;;5028963;28;20128;-84
2022/05/14 11:46:29;;;;;;;15.68;6.13;;;24.80;41.50;;;;;;5009590;28;20041;-81
2022/05/14 11:49:11;;;;;;;14.60;5.85;;;24.50;42.00;;;;;;5010680;28;20122;-83
2022/05/14 11:52:04;;;;;;;13.68;4.85;;;24.50;42.60;;;;;;5011313;28;20038;-79
2022/05/14 11:54:50;;;;;;;12.10;5.00;;;24.90;41.20;;;;;;5009262;28;20095;-80
2022/05/14 11:57:34;;;;;;;13.55;4.70;;;25.00;41.90;;;;;;5015014;28;20152;-83
2022/05/14 11:59:59;;;;;;;14.65;4.90;;;24.70;40.60;;;;;;5010654;28;20397;-83
2022/05/14 12:02:49;;;;;;;14.32;4.60;;;24.50;41.50;;;;;;5024051;28;20048;-82
2022/05/14 12:05:23;;;;;;;11.48;4.88;;;25.00;39.60;;;;;;5028257;28;20129;-83
2022/05/14 12:08:10;;;;;;;10.97;5.57;;;24.90;41.20;;;;;;5031001;28;20029;-82
2022/05/14 12:11:21;;;;;;;13.80;5.75;;;24.80;41.80;;;;;;5014069;28;20041;-81
2022/05/14 12:14:05;;;;;;;12.68;5.57;;;25.00;40.20;;;;;;5008911;28;20060;-83
2022/05/14 12:16:41;;;;;;;13.32;5.13;;;24.80;41.00;;;;;;5018234;28;20132;-82
2022/05/14 12:19:34;;;;;;;12.20;5.03;;;24.80;41.70;;;;;;5019862;28;20397;-80
2022/05/14 12:22:08;;;;;;;13.52;5.18;;;25.10;41.40;;;;;;5013200;28;20041;-81
2022/05/14 12:24:35;;;;;;;13.40;5.30;;;25.50;40.60;;;;;;5021954;28;20042;-81
2022/05/14 12:27:01;;;;;;;15.60;5.53;;;25.50;40.30;;;;;;5012828;28;20033;-82
2022/05/14 12:29:28;;;;;;;15.40;5.57;;;25.40;40.50;;;;;;5022867;28;20538;-84
2022/05/14 12:34:57;;;;;;;13.48;5.20;;;24.40;39.50;;;;;;5020263;28;20129;-83
2022/05/14 12:37:39;;;;;;;11.77;4.90;;;24.60;40.30;;;;;;5012482;28;20037;-84
2022/05/14 12:40:06;;;;;;;12.98;5.05;;;24.70;40.40;;;;;;5022771;28;20072;-78
2022/05/14 12:42:41;;;;;;;11.80;5.03;;;25.10;40.40;;;;;;5022742;28;20117;-81
2022/05/14 12:45:09;;;;;;;13.45;5.07;;;25.30;39.20;;;;;;5014704;28;20107;-82
2022/05/14 12:47:39;;;;;;;12.13;5.00;;;25.50;38.00;;;;;;5012064;28;20180;-82
2022/05/14 12:50:20;;;;;;;16.13;6.82;;;25.60;38.20;;;;;;5023141;28;20030;-81
2022/05/14 12:52:57;;;;;;;14.68;6.65;;;25.00;40.30;;;;;;5024492;28;20045;-86
2022/05/14 12:55:25;;;;;;;15.13;6.15;;;24.60;41.30;;;;;;5018365;28;20046;-82
2022/05/14 12:57:52;;;;;;;16.15;6.20;;;24.60;41.40;;;;;;5019337;28;20034;-81
2022/05/14 13:00:21;;;;;;;15.27;6.20;;;24.40;40.90;;;;;;5021158;28;20036;-83
2022/05/14 13:03:00;;;;;;;14.07;6.03;;;24.70;41.60;;;;;;5029976;28;20107;-80
2022/05/14 13:05:34;;;;;;;16.83;6.22;;;24.90;41.80;;;;;;5018340;28;20053;-83
2022/05/14 13:08:19;;;;;;;;;;;25.10;41.10;;;;;;5013834;28;20504;-82
2022/05/14 13:10:49;;;;;;;12.93;5.75;;;25.40;41.00;;;;;;5012672;28;19951;-84
2022/05/14 13:13:17;;;;;;;14.07;5.32;;;25.30;38.70;;;;;;5014148;28;20427;-81
2022/05/14 13:15:52;;;;;;;13.82;5.53;;;25.40;39.00;;;;;;5005710;28;20041;-79
2022/05/14 13:18:32;;;;;;;14.23;5.90;;;25.70;38.00;;;;;;5017306;28;20030;-82
2022/05/14 13:21:03;;;;;;;13.57;5.50;;;25.70;38.80;;;;;;5017923;28;20056;-82